sensor_id;sensor_type;location;lat;lon;timestamp;temperature;humidity
75091;DHT22;63674;48.048;8.306;2022-11-20T00:01:37;3.40;99.90
75091;DHT22;63674;48.048;8.306;2022-11-20T00:04:06;3.30;99.90
75091;DHT22;63674;48.048;8.306;2022-11-20T00:06:36;3.20;99.90
75091;DHT22;63674;48.048;8.306;2022-11-20T00:09:06;3.10;99.90
75091;DHT22;63674;48.048;8.306;2022-11-20T00:11:34;3.10;99.90
75091;DHT22;63674;48.048;8.306;2022-11-20T00:14:03;3.10;99.90
75091;DHT22;63674;48.048;8.306;2022-11-20T00:16:32;3.10;99.90
75091;DHT22;63674;48.048;8.306;2022-11-20T00:19:01;3.10;99.90
75091;DHT22;63674;48.048;8.306;2022-11-20T00:21:30;3.10;99.90
75091;DHT22;63674;48.048;8.306;2022-11-20T00:23:59;3.10;99.90
75091;DHT22;63674;48.048;8.306;2022-11-20T00:26:29;3.00;99.90
75091;DHT22;63674;48.048;8.306;2022-11-20T00:28:59;3.00;99.90
75091;DHT22;63674;48.048;8.306;2022-11-20T00:31:30;3.00;99.90
75091;DHT22;63674;48.048;8.306;2022-11-20T00:34:00;3.10;99.90
75091;DHT22;63674;48.048;8.306;2022-11-20T00:36:31;3.10;99.90
75091;DHT22;63674;48.048;8.306;2022-11-20T00:39:01;3.00;99.90
75091;DHT22;63674;48.048;8.306;2022-11-20T00:41:31;2.90;99.90
75091;DHT22;63674;48.048;8.306;2022-11-20T00:44:00;2.80;99.90
75091;DHT22;63674;48.048;8.306;2022-11-20T00:46:28;2.80;99.90
75091;DHT22;63674;48.048;8.306;2022-11-20T00:48:57;2.70;99.90
75091;DHT22;63674;48.048;8.306;2022-11-20T00:51:27;2.70;99.90
75091;DHT22;63674;48.048;8.306;2022-11-20T00:53:56;2.70;99.90
75091;DHT22;63674;48.048;8.306;2022-11-20T00:56:27;2.70;99.90
75091;DHT22;63674;48.048;8.306;2022-11-20T00:58:59;2.70;99.90
75091;DHT22;63674;48.048;8.306;2022-11-20T01:01:29;2.70;99.90
75091;DHT22;63674;48.048;8.306;2022-11-20T01:03:59;2.80;99.90
75091;DHT22;63674;48.048;8.306;2022-11-20T01:06:30;2.80;99.90
75091;DHT22;63674;48.048;8.306;2022-11-20T01:09:00;2.80;99.90
75091;DHT22;63674;48.048;8.306;2022-11-20T01:11:33;2.70;99.90
75091;DHT22;63674;48.048;8.306;2022-11-20T01:14:05;2.70;99.90
75091;DHT22;63674;48.048;8.306;2022-11-20T01:16:36;2.80;99.90
75091;DHT22;63674;48.048;8.306;2022-11-20T01:19:09;2.80;99.90
75091;DHT22;63674;48.048;8.306;2022-11-20T01:21:46;2.80;99.90
75091;DHT22;63674;48.048;8.306;2022-11-20T01:24:18;2.80;99.90
75091;DHT22;63674;48.048;8.306;2022-11-20T01:26:48;2.70;99.90
75091;DHT22;63674;48.048;8.306;2022-11-20T01:29:21;2.70;99.90
75091;DHT22;63674;48.048;8.306;2022-11-20T01:31:51;2.70;99.90
75091;DHT22;63674;48.048;8.306;2022-11-20T01:34:21;2.70;99.90
75091;DHT22;63674;48.048;8.306;2022-11-20T01:36:51;2.60;99.90
75091;DHT22;63674;48.048;8.306;2022-11-20T01:39:22;2.60;99.90
75091;DHT22;63674;48.048;8.306;2022-11-20T01:41:55;2.70;99.90
75091;DHT22;63674;48.048;8.306;2022-11-20T01:44:54;2.60;99.90
75091;DHT22;63674;48.048;8.306;2022-11-20T01:47:33;2.60;99.90
75091;DHT22;63674;48.048;8.306;2022-11-20T01:50:08;2.60;99.90
75091;DHT22;63674;48.048;8.306;2022-11-20T01:52:42;2.60;99.90
75091;DHT22;63674;48.048;8.306;2022-11-20T01:55:17;2.60;99.90
75091;DHT22;63674;48.048;8.306;2022-11-20T01:57:48;2.70;99.90
75091;DHT22;63674;48.048;8.306;2022-11-20T02:00:20;2.70;99.90
75091;DHT22;63674;48.048;8.306;2022-11-20T02:02:52;2.70;99.90
75091;DHT22;63674;48.048;8.306;2022-11-20T02:05:25;2.80;99.90
75091;DHT22;63674;48.048;8.306;2022-11-20T02:07:58;2.80;99.90
75091;DHT22;63674;48.048;8.306;2022-11-20T02:10:27;2.80;99.90
75091;DHT22;63674;48.048;8.306;2022-11-20T02:12:56;2.80;99.90
75091;DHT22;63674;48.048;8.306;2022-11-20T02:15:45;2.80;99.90
75091;DHT22;63674;48.048;8.306;2022-11-20T02:18:17;2.80;99.90
75091;DHT22;63674;48.048;8.306;2022-11-20T02:20:49;2.80;99.90
75091;DHT22;63674;48.048;8.306;2022-11-20T02:23:27;2.80;99.90
75091;DHT22;63674;48.048;8.306;2022-11-20T02:26:06;2.80;99.90
75091;DHT22;63674;48.048;8.306;2022-11-20T02:28:37;2.80;99.90
75091;DHT22;63674;48.048;8.306;2022-11-20T02:31:06;2.80;99.90
75091;DHT22;63674;48.048;8.306;2022-11-20T02:33:34;2.70;99.90
75091;DHT22;63674;48.048;8.306;2022-11-20T02:36:03;2.70;99.90
75091;DHT22;63674;48.048;8.306;2022-11-20T02:38:33;2.80;99.90
75091;DHT22;63674;48.048;8.306;2022-11-20T02:41:02;2.80;99.90
75091;DHT22;63674;48.048;8.306;2022-11-20T02:43:31;2.80;99.90
75091;DHT22;63674;48.048;8.306;2022-11-20T02:46:00;2.70;99.90
75091;DHT22;63674;48.048;8.306;2022-11-20T02:48:28;2.60;99.90
75091;DHT22;63674;48.048;8.306;2022-11-20T02:50:59;2.60;99.90
75091;DHT22;63674;48.048;8.306;2022-11-20T02:53:28;2.50;99.90
75091;DHT22;63674;48.048;8.306;2022-11-20T02:55:56;2.50;99.90
75091;DHT22;63674;48.048;8.306;2022-11-20T02:58:26;2.40;99.90
75091;DHT22;63674;48.048;8.306;2022-11-20T03:00:55;2.40;99.90
75091;DHT22;63674;48.048;8.306;2022-11-20T03:03:23;2.30;99.90
75091;DHT22;63674;48.048;8.306;2022-11-20T03:05:52;2.30;99.90
75091;DHT22;63674;48.048;8.306;2022-11-20T03:08:20;2.30;99.90
75091;DHT22;63674;48.048;8.306;2022-11-20T03:10:49;2.30;99.90
75091;DHT22;63674;48.048;8.306;2022-11-20T03:13:17;2.20;99.90
75091;DHT22;63674;48.048;8.306;2022-11-20T03:15:47;2.20;99.90
75091;DHT22;63674;48.048;8.306;2022-11-20T03:18:16;2.30;99.90
75091;DHT22;63674;48.048;8.306;2022-11-20T03:20:44;2.20;99.90
75091;DHT22;63674;48.048;8.306;2022-11-20T03:23:13;2.00;99.90
75091;DHT22;63674;48.048;8.306;2022-11-20T03:25:41;2.00;99.90
75091;DHT22;63674;48.048;8.306;2022-11-20T03:28:10;1.80;99.90
75091;DHT22;63674;48.048;8.306;2022-11-20T03:30:39;1.80;99.90
75091;DHT22;63674;48.048;8.306;2022-11-20T03:33:09;1.80;99.90
75091;DHT22;63674;48.048;8.306;2022-11-20T03:35:38;1.70;99.90
75091;DHT22;63674;48.048;8.306;2022-11-20T03:38:06;1.70;99.90
75091;DHT22;63674;48.048;8.306;2022-11-20T03:40:35;1.60;99.90
75091;DHT22;63674;48.048;8.306;2022-11-20T03:43:03;1.60;99.90
75091;DHT22;63674;48.048;8.306;2022-11-20T03:45:32;1.70;99.90
75091;DHT22;63674;48.048;8.306;2022-11-20T03:48:00;1.70;99.90
75091;DHT22;63674;48.048;8.306;2022-11-20T03:50:30;1.70;99.90
75091;DHT22;63674;48.048;8.306;2022-11-20T03:52:59;1.70;99.90
75091;DHT22;63674;48.048;8.306;2022-11-20T03:55:27;1.70;99.90
75091;DHT22;63674;48.048;8.306;2022-11-20T03:57:56;1.80;99.90
75091;DHT22;63674;48.048;8.306;2022-11-20T04:00:24;1.80;99.90
75091;DHT22;63674;48.048;8.306;2022-11-20T04:02:53;1.90;99.90
75091;DHT22;63674;48.048;8.306;2022-11-20T04:05:21;1.90;99.90
75091;DHT22;63674;48.048;8.306;2022-11-20T04:07:51;2.10;99.90
75091;DHT22;63674;48.048;8.306;2022-11-20T04:10:20;2.10;99.90
75091;DHT22;63674;48.048;8.306;2022-11-20T04:12:49;2.10;99.90
75091;DHT22;63674;48.048;8.306;2022-11-20T04:15:17;2.10;99.90
75091;DHT22;63674;48.048;8.306;2022-11-20T04:17:46;2.20;99.90
75091;DHT22;63674;48.048;8.306;2022-11-20T04:20:15;2.30;99.90
75091;DHT22;63674;48.048;8.306;2022-11-20T04:22:43;2.30;99.90
75091;DHT22;63674;48.048;8.306;2022-11-20T04:25:13;2.30;99.90
75091;DHT22;63674;48.048;8.306;2022-11-20T04:27:42;2.40;99.90
75091;DHT22;63674;48.048;8.306;2022-11-20T04:30:11;2.40;99.90
75091;DHT22;63674;48.048;8.306;2022-11-20T04:32:40;2.30;99.90
75091;DHT22;63674;48.048;8.306;2022-11-20T04:35:09;2.30;99.90
75091;DHT22;63674;48.048;8.306;2022-11-20T04:37:37;2.50;99.90
75091;DHT22;63674;48.048;8.306;2022-11-20T04:40:07;2.50;99.90
75091;DHT22;63674;48.048;8.306;2022-11-20T04:42:37;2.30;99.90
75091;DHT22;63674;48.048;8.306;2022-11-20T04:45:06;2.40;99.90
75091;DHT22;63674;48.048;8.306;2022-11-20T04:47:35;2.40;99.90
75091;DHT22;63674;48.048;8.306;2022-11-20T04:50:04;2.40;99.90
75091;DHT22;63674;48.048;8.306;2022-11-20T04:52:34;2.50;99.90
75091;DHT22;63674;48.048;8.306;2022-11-20T04:55:03;2.50;99.90
75091;DHT22;63674;48.048;8.306;2022-11-20T04:57:32;2.60;99.90
75091;DHT22;63674;48.048;8.306;2022-11-20T05:00:03;2.60;99.90
75091;DHT22;63674;48.048;8.306;2022-11-20T05:02:33;2.60;99.90
75091;DHT22;63674;48.048;8.306;2022-11-20T05:05:01;2.60;99.90
75091;DHT22;63674;48.048;8.306;2022-11-20T05:07:30;2.60;99.90
75091;DHT22;63674;48.048;8.306;2022-11-20T05:09:59;2.70;99.90
75091;DHT22;63674;48.048;8.306;2022-11-20T05:12:27;2.70;99.90
75091;DHT22;63674;48.048;8.306;2022-11-20T05:14:56;2.70;99.90
75091;DHT22;63674;48.048;8.306;2022-11-20T05:17:26;2.80;99.90
75091;DHT22;63674;48.048;8.306;2022-11-20T05:19:54;2.80;99.90
75091;DHT22;63674;48.048;8.306;2022-11-20T05:22:23;2.80;99.90
75091;DHT22;63674;48.048;8.306;2022-11-20T05:24:51;2.80;99.90
75091;DHT22;63674;48.048;8.306;2022-11-20T05:27:20;2.80;99.90
75091;DHT22;63674;48.048;8.306;2022-11-20T05:29:49;2.80;99.90
75091;DHT22;63674;48.048;8.306;2022-11-20T05:32:17;2.80;99.90
75091;DHT22;63674;48.048;8.306;2022-11-20T05:34:47;2.90;99.90
75091;DHT22;63674;48.048;8.306;2022-11-20T05:37:15;2.90;99.90
75091;DHT22;63674;48.048;8.306;2022-11-20T05:39:44;2.90;99.90
75091;DHT22;63674;48.048;8.306;2022-11-20T05:42:13;2.90;99.90
75091;DHT22;63674;48.048;8.306;2022-11-20T05:45:00;3.00;99.90
75091;DHT22;63674;48.048;8.306;2022-11-20T05:47:32;3.00;99.90
75091;DHT22;63674;48.048;8.306;2022-11-20T05:50:03;3.00;99.90
75091;DHT22;63674;48.048;8.306;2022-11-20T05:52:32;3.00;99.90
75091;DHT22;63674;48.048;8.306;2022-11-20T05:55:01;3.00;99.90
75091;DHT22;63674;48.048;8.306;2022-11-20T05:57:30;3.00;99.90
75091;DHT22;63674;48.048;8.306;2022-11-20T05:59:59;3.00;99.90
75091;DHT22;63674;48.048;8.306;2022-11-20T06:02:28;3.00;99.90
75091;DHT22;63674;48.048;8.306;2022-11-20T06:04:56;3.00;99.90
75091;DHT22;63674;48.048;8.306;2022-11-20T06:07:27;3.00;99.90
75091;DHT22;63674;48.048;8.306;2022-11-20T06:09:55;3.10;99.90
75091;DHT22;63674;48.048;8.306;2022-11-20T06:12:24;3.10;99.90
75091;DHT22;63674;48.048;8.306;2022-11-20T06:14:52;3.10;99.90
75091;DHT22;63674;48.048;8.306;2022-11-20T06:17:21;3.10;99.90
75091;DHT22;63674;48.048;8.306;2022-11-20T06:19:49;3.00;99.90
75091;DHT22;63674;48.048;8.306;2022-11-20T06:22:18;3.00;99.90
75091;DHT22;63674;48.048;8.306;2022-11-20T06:24:48;3.00;99.90
75091;DHT22;63674;48.048;8.306;2022-11-20T06:27:16;3.00;99.90
75091;DHT22;63674;48.048;8.306;2022-11-20T06:29:45;3.00;99.90
75091;DHT22;63674;48.048;8.306;2022-11-20T06:32:14;3.00;99.90
75091;DHT22;63674;48.048;8.306;2022-11-20T06:34:43;3.00;99.90
75091;DHT22;63674;48.048;8.306;2022-11-20T06:37:11;3.00;99.90
75091;DHT22;63674;48.048;8.306;2022-11-20T06:39:40;3.00;99.90
75091;DHT22;63674;48.048;8.306;2022-11-20T06:42:10;3.00;99.90
75091;DHT22;63674;48.048;8.306;2022-11-20T06:44:38;3.00;99.90
75091;DHT22;63674;48.048;8.306;2022-11-20T06:47:07;3.00;99.90
75091;DHT22;63674;48.048;8.306;2022-11-20T06:49:36;3.10;99.90
75091;DHT22;63674;48.048;8.306;2022-11-20T06:52:05;3.00;99.90
75091;DHT22;63674;48.048;8.306;2022-11-20T06:54:33;3.00;99.90
75091;DHT22;63674;48.048;8.306;2022-11-20T06:57:02;3.00;99.90
75091;DHT22;63674;48.048;8.306;2022-11-20T06:59:32;3.00;99.90
75091;DHT22;63674;48.048;8.306;2022-11-20T07:02:01;3.00;99.90
75091;DHT22;63674;48.048;8.306;2022-11-20T07:04:29;3.00;99.90
75091;DHT22;63674;48.048;8.306;2022-11-20T07:06:58;3.00;99.90
75091;DHT22;63674;48.048;8.306;2022-11-20T07:09:27;3.00;99.90
75091;DHT22;63674;48.048;8.306;2022-11-20T07:11:56;3.00;99.90
75091;DHT22;63674;48.048;8.306;2022-11-20T07:14:25;3.10;99.90
75091;DHT22;63674;48.048;8.306;2022-11-20T07:16:55;3.10;99.90
75091;DHT22;63674;48.048;8.306;2022-11-20T07:19:23;3.00;99.90
75091;DHT22;63674;48.048;8.306;2022-11-20T07:21:52;2.90;99.90
75091;DHT22;63674;48.048;8.306;2022-11-20T07:24:20;2.90;99.90
75091;DHT22;63674;48.048;8.306;2022-11-20T07:26:49;3.00;99.90
75091;DHT22;63674;48.048;8.306;2022-11-20T07:29:17;3.10;99.90
75091;DHT22;63674;48.048;8.306;2022-11-20T07:31:46;3.10;99.90
75091;DHT22;63674;48.048;8.306;2022-11-20T07:34:16;3.10;99.90
75091;DHT22;63674;48.048;8.306;2022-11-20T07:36:44;3.00;99.90
75091;DHT22;63674;48.048;8.306;2022-11-20T07:39:13;2.90;99.90
75091;DHT22;63674;48.048;8.306;2022-11-20T07:41:42;3.00;99.90
75091;DHT22;63674;48.048;8.306;2022-11-20T07:44:10;3.00;99.90
75091;DHT22;63674;48.048;8.306;2022-11-20T07:46:39;3.00;99.90
75091;DHT22;63674;48.048;8.306;2022-11-20T07:49:08;3.10;99.90
75091;DHT22;63674;48.048;8.306;2022-11-20T07:51:38;3.10;99.90
75091;DHT22;63674;48.048;8.306;2022-11-20T07:54:06;3.10;99.90
75091;DHT22;63674;48.048;8.306;2022-11-20T07:56:35;3.20;99.90
75091;DHT22;63674;48.048;8.306;2022-11-20T07:59:03;3.20;99.90
75091;DHT22;63674;48.048;8.306;2022-11-20T08:01:31;3.20;99.90
75091;DHT22;63674;48.048;8.306;2022-11-20T08:04:00;3.20;99.90
75091;DHT22;63674;48.048;8.306;2022-11-20T08:06:29;3.30;99.90
75091;DHT22;63674;48.048;8.306;2022-11-20T08:08:59;3.40;99.90
75091;DHT22;63674;48.048;8.306;2022-11-20T08:11:27;3.40;99.90
75091;DHT22;63674;48.048;8.306;2022-11-20T08:14:14;3.40;99.90
75091;DHT22;63674;48.048;8.306;2022-11-20T08:16:44;3.50;99.90
75091;DHT22;63674;48.048;8.306;2022-11-20T08:19:15;3.60;99.90
75091;DHT22;63674;48.048;8.306;2022-11-20T08:21:44;3.60;99.90
75091;DHT22;63674;48.048;8.306;2022-11-20T08:24:15;3.60;99.90
75091;DHT22;63674;48.048;8.306;2022-11-20T08:26:43;3.60;99.90
75091;DHT22;63674;48.048;8.306;2022-11-20T08:29:12;3.60;99.90
75091;DHT22;63674;48.048;8.306;2022-11-20T08:31:40;3.60;99.90
75091;DHT22;63674;48.048;8.306;2022-11-20T08:34:09;3.70;99.90
75091;DHT22;63674;48.048;8.306;2022-11-20T08:36:44;3.70;99.90
75091;DHT22;63674;48.048;8.306;2022-11-20T08:39:14;3.80;99.90
75091;DHT22;63674;48.048;8.306;2022-11-20T08:41:43;3.80;99.90
75091;DHT22;63674;48.048;8.306;2022-11-20T08:44:11;3.80;99.90
75091;DHT22;63674;48.048;8.306;2022-11-20T08:46:41;3.80;99.90
75091;DHT22;63674;48.048;8.306;2022-11-20T08:49:11;3.80;99.90
75091;DHT22;63674;48.048;8.306;2022-11-20T08:51:41;3.70;99.90
75091;DHT22;63674;48.048;8.306;2022-11-20T08:54:10;3.70;99.90
75091;DHT22;63674;48.048;8.306;2022-11-20T08:56:40;3.70;99.90
75091;DHT22;63674;48.048;8.306;2022-11-20T08:59:08;3.70;99.90
75091;DHT22;63674;48.048;8.306;2022-11-20T09:01:57;3.70;99.90
75091;DHT22;63674;48.048;8.306;2022-11-20T09:04:26;3.70;99.90
75091;DHT22;63674;48.048;8.306;2022-11-20T09:06:54;3.70;99.90
75091;DHT22;63674;48.048;8.306;2022-11-20T09:09:23;3.70;99.90
75091;DHT22;63674;48.048;8.306;2022-11-20T09:11:53;3.60;99.90
75091;DHT22;63674;48.048;8.306;2022-11-20T09:14:22;3.50;99.90
75091;DHT22;63674;48.048;8.306;2022-11-20T09:16:56;3.60;99.90
75091;DHT22;63674;48.048;8.306;2022-11-20T09:19:24;3.70;99.90
75091;DHT22;63674;48.048;8.306;2022-11-20T09:22:02;3.70;99.90
75091;DHT22;63674;48.048;8.306;2022-11-20T09:24:30;3.70;99.90
75091;DHT22;63674;48.048;8.306;2022-11-20T09:27:03;3.80;99.90
75091;DHT22;63674;48.048;8.306;2022-11-20T09:29:32;3.80;99.90
75091;DHT22;63674;48.048;8.306;2022-11-20T09:32:01;3.80;99.90
75091;DHT22;63674;48.048;8.306;2022-11-20T09:34:30;3.90;99.90
75091;DHT22;63674;48.048;8.306;2022-11-20T09:36:58;3.90;99.90
75091;DHT22;63674;48.048;8.306;2022-11-20T09:39:33;3.90;99.90
75091;DHT22;63674;48.048;8.306;2022-11-20T09:45:21;3.90;99.90
75091;DHT22;63674;48.048;8.306;2022-11-20T09:48:14;3.90;99.90
75091;DHT22;63674;48.048;8.306;2022-11-20T09:50:58;3.90;99.90
75091;DHT22;63674;48.048;8.306;2022-11-20T09:53:42;3.90;99.90
75091;DHT22;63674;48.048;8.306;2022-11-20T09:56:17;3.90;99.90
75091;DHT22;63674;48.048;8.306;2022-11-20T09:58:51;3.90;99.90
75091;DHT22;63674;48.048;8.306;2022-11-20T10:01:23;3.80;99.90
75091;DHT22;63674;48.048;8.306;2022-11-20T10:03:58;3.90;99.90
75091;DHT22;63674;48.048;8.306;2022-11-20T10:06:31;3.90;99.90
75091;DHT22;63674;48.048;8.306;2022-11-20T10:09:06;3.90;99.90
75091;DHT22;63674;48.048;8.306;2022-11-20T10:11:48;3.90;99.90
75091;DHT22;63674;48.048;8.306;2022-11-20T10:14:30;4.00;99.90
75091;DHT22;63674;48.048;8.306;2022-11-20T10:17:15;3.90;99.90
75091;DHT22;63674;48.048;8.306;2022-11-20T10:20:00;3.90;99.90
75091;DHT22;63674;48.048;8.306;2022-11-20T10:22:48;3.90;99.90
75091;DHT22;63674;48.048;8.306;2022-11-20T10:25:25;3.90;99.90
75091;DHT22;63674;48.048;8.306;2022-11-20T10:28:16;4.00;99.90
75091;DHT22;63674;48.048;8.306;2022-11-20T10:30:57;4.10;99.90
75091;DHT22;63674;48.048;8.306;2022-11-20T10:33:33;4.10;99.90
75091;DHT22;63674;48.048;8.306;2022-11-20T10:36:27;4.10;99.90
75091;DHT22;63674;48.048;8.306;2022-11-20T10:39:00;4.10;99.90
75091;DHT22;63674;48.048;8.306;2022-11-20T10:41:38;4.10;99.90
75091;DHT22;63674;48.048;8.306;2022-11-20T10:44:14;4.20;99.90
75091;DHT22;63674;48.048;8.306;2022-11-20T10:47:05;4.10;99.90
75091;DHT22;63674;48.048;8.306;2022-11-20T10:49:41;4.10;99.90
75091;DHT22;63674;48.048;8.306;2022-11-20T10:52:16;4.10;99.90
75091;DHT22;63674;48.048;8.306;2022-11-20T10:54:59;4.10;99.90
75091;DHT22;63674;48.048;8.306;2022-11-20T10:57:47;4.10;99.90
75091;DHT22;63674;48.048;8.306;2022-11-20T11:00:21;4.20;99.90
75091;DHT22;63674;48.048;8.306;2022-11-20T11:02:52;4.10;99.90
75091;DHT22;63674;48.048;8.306;2022-11-20T11:05:27;4.00;99.90
75091;DHT22;63674;48.048;8.306;2022-11-20T11:08:03;4.10;99.90
75091;DHT22;63674;48.048;8.306;2022-11-20T11:10:37;4.30;99.90
75091;DHT22;63674;48.048;8.306;2022-11-20T11:13:19;4.30;99.90
75091;DHT22;63674;48.048;8.306;2022-11-20T11:15:49;4.30;99.90
75091;DHT22;63674;48.048;8.306;2022-11-20T11:18:27;4.40;99.90
75091;DHT22;63674;48.048;8.306;2022-11-20T11:20:57;4.40;99.90
75091;DHT22;63674;48.048;8.306;2022-11-20T11:23:33;4.40;99.90
75091;DHT22;63674;48.048;8.306;2022-11-20T11:26:06;3.10;99.90
75091;DHT22;63674;48.048;8.306;2022-11-20T11:28:54;4.50;99.90
75091;DHT22;63674;48.048;8.306;2022-11-20T11:31:24;4.50;99.90
75091;DHT22;63674;48.048;8.306;2022-11-20T11:34:05;4.50;99.90
75091;DHT22;63674;48.048;8.306;2022-11-20T11:36:35;4.60;99.90
75091;DHT22;63674;48.048;8.306;2022-11-20T11:39:06;4.60;99.90
75091;DHT22;63674;48.048;8.306;2022-11-20T11:41:39;4.60;99.90
75091;DHT22;63674;48.048;8.306;2022-11-20T11:44:16;4.60;99.90
75091;DHT22;63674;48.048;8.306;2022-11-20T11:47:05;4.60;99.90
75091;DHT22;63674;48.048;8.306;2022-11-20T11:49:38;4.50;99.90
75091;DHT22;63674;48.048;8.306;2022-11-20T11:52:13;4.60;99.90
75091;DHT22;63674;48.048;8.306;2022-11-20T11:54:48;4.60;99.90
75091;DHT22;63674;48.048;8.306;2022-11-20T11:57:23;4.40;99.90
75091;DHT22;63674;48.048;8.306;2022-11-20T12:00:02;4.30;99.90
75091;DHT22;63674;48.048;8.306;2022-11-20T12:02:36;4.20;99.90
75091;DHT22;63674;48.048;8.306;2022-11-20T12:05:23;4.20;99.90
75091;DHT22;63674;48.048;8.306;2022-11-20T12:07:57;4.40;99.90
75091;DHT22;63674;48.048;8.306;2022-11-20T12:10:40;4.90;99.90
75091;DHT22;63674;48.048;8.306;2022-11-20T12:13:20;4.90;99.90
75091;DHT22;63674;48.048;8.306;2022-11-20T12:15:54;5.10;99.90
75091;DHT22;63674;48.048;8.306;2022-11-20T12:18:22;5.00;99.90
75091;DHT22;63674;48.048;8.306;2022-11-20T12:21:03;5.00;99.90
75091;DHT22;63674;48.048;8.306;2022-11-20T12:23:46;4.90;99.90
75091;DHT22;63674;48.048;8.306;2022-11-20T12:26:39;5.00;99.90
75091;DHT22;63674;48.048;8.306;2022-11-20T12:29:21;5.10;99.90
75091;DHT22;63674;48.048;8.306;2022-11-20T12:32:33;5.20;99.90
75091;DHT22;63674;48.048;8.306;2022-11-20T12:35:43;5.00;99.90
75091;DHT22;63674;48.048;8.306;2022-11-20T12:38:47;4.90;99.90
75091;DHT22;63674;48.048;8.306;2022-11-20T12:41:35;4.90;99.90
75091;DHT22;63674;48.048;8.306;2022-11-20T12:44:41;5.10;99.90
75091;DHT22;63674;48.048;8.306;2022-11-20T12:48:03;5.20;99.90
75091;DHT22;63674;48.048;8.306;2022-11-20T12:51:18;5.40;99.90
75091;DHT22;63674;48.048;8.306;2022-11-20T12:54:11;5.40;99.90
75091;DHT22;63674;48.048;8.306;2022-11-20T12:57:02;5.20;99.90
75091;DHT22;63674;48.048;8.306;2022-11-20T12:59:46;5.10;99.90
75091;DHT22;63674;48.048;8.306;2022-11-20T13:02:27;5.00;99.90
75091;DHT22;63674;48.048;8.306;2022-11-20T13:05:13;5.00;99.90
75091;DHT22;63674;48.048;8.306;2022-11-20T13:07:47;4.80;99.90
75091;DHT22;63674;48.048;8.306;2022-11-20T13:10:30;4.80;99.90
75091;DHT22;63674;48.048;8.306;2022-11-20T13:26:37;4.20;99.90
75091;DHT22;63674;48.048;8.306;2022-11-20T13:29:10;4.10;99.90
75091;DHT22;63674;48.048;8.306;2022-11-20T13:31:43;4.10;99.90
75091;DHT22;63674;48.048;8.306;2022-11-20T13:34:23;4.00;99.90
75091;DHT22;63674;48.048;8.306;2022-11-20T13:36:54;4.10;99.90
75091;DHT22;63674;48.048;8.306;2022-11-20T13:39:24;4.10;99.90
75091;DHT22;63674;48.048;8.306;2022-11-20T13:41:57;4.00;99.90
75091;DHT22;63674;48.048;8.306;2022-11-20T13:44:31;4.00;99.90
75091;DHT22;63674;48.048;8.306;2022-11-20T13:47:20;3.90;99.90
75091;DHT22;63674;48.048;8.306;2022-11-20T13:49:51;4.00;99.90
75091;DHT22;63674;48.048;8.306;2022-11-20T13:52:36;4.00;99.90
75091;DHT22;63674;48.048;8.306;2022-11-20T13:55:16;3.90;99.90
75091;DHT22;63674;48.048;8.306;2022-11-20T13:58:22;3.90;99.90
75091;DHT22;63674;48.048;8.306;2022-11-20T14:00:58;4.00;99.90
75091;DHT22;63674;48.048;8.306;2022-11-20T14:03:30;4.00;99.90
75091;DHT22;63674;48.048;8.306;2022-11-20T14:06:26;4.20;99.90
75091;DHT22;63674;48.048;8.306;2022-11-20T14:08:56;4.20;99.90
75091;DHT22;63674;48.048;8.306;2022-11-20T14:11:27;4.10;99.90
75091;DHT22;63674;48.048;8.306;2022-11-20T14:13:59;4.10;99.90
75091;DHT22;63674;48.048;8.306;2022-11-20T14:16:32;4.00;99.90
75091;DHT22;63674;48.048;8.306;2022-11-20T14:19:24;4.10;99.90
75091;DHT22;63674;48.048;8.306;2022-11-20T14:22:08;4.10;99.90
75091;DHT22;63674;48.048;8.306;2022-11-20T14:24:39;4.10;99.90
75091;DHT22;63674;48.048;8.306;2022-11-20T14:27:12;4.00;99.90
75091;DHT22;63674;48.048;8.306;2022-11-20T14:29:45;4.10;99.90
75091;DHT22;63674;48.048;8.306;2022-11-20T14:32:16;4.20;99.90
75091;DHT22;63674;48.048;8.306;2022-11-20T14:34:48;4.30;99.90
75091;DHT22;63674;48.048;8.306;2022-11-20T14:37:20;4.40;99.90
75091;DHT22;63674;48.048;8.306;2022-11-20T14:39:52;4.40;99.90
75091;DHT22;63674;48.048;8.306;2022-11-20T14:42:23;4.30;99.90
75091;DHT22;63674;48.048;8.306;2022-11-20T14:44:56;4.20;99.90
75091;DHT22;63674;48.048;8.306;2022-11-20T14:47:26;4.20;99.90
75091;DHT22;63674;48.048;8.306;2022-11-20T14:49:58;4.20;99.90
75091;DHT22;63674;48.048;8.306;2022-11-20T14:52:31;4.10;99.90
75091;DHT22;63674;48.048;8.306;2022-11-20T14:55:00;4.10;99.90
75091;DHT22;63674;48.048;8.306;2022-11-20T14:57:29;4.00;99.90
75091;DHT22;63674;48.048;8.306;2022-11-20T15:00:18;4.00;99.90
75091;DHT22;63674;48.048;8.306;2022-11-20T15:02:50;3.90;99.90
75091;DHT22;63674;48.048;8.306;2022-11-20T15:05:21;3.90;99.90
75091;DHT22;63674;48.048;8.306;2022-11-20T15:08:04;3.80;99.90
75091;DHT22;63674;48.048;8.306;2022-11-20T15:10:34;3.70;99.90
75091;DHT22;63674;48.048;8.306;2022-11-20T15:13:05;3.70;99.90
75091;DHT22;63674;48.048;8.306;2022-11-20T15:15:45;3.60;99.90
75091;DHT22;63674;48.048;8.306;2022-11-20T15:18:17;3.60;99.90
75091;DHT22;63674;48.048;8.306;2022-11-20T15:20:47;3.60;99.90
75091;DHT22;63674;48.048;8.306;2022-11-20T15:23:17;3.50;99.90
75091;DHT22;63674;48.048;8.306;2022-11-20T15:25:47;3.50;99.90
75091;DHT22;63674;48.048;8.306;2022-11-20T15:28:18;3.40;99.90
75091;DHT22;63674;48.048;8.306;2022-11-20T15:30:49;3.50;99.90
75091;DHT22;63674;48.048;8.306;2022-11-20T15:33:18;3.40;99.90
75091;DHT22;63674;48.048;8.306;2022-11-20T15:35:46;3.30;99.90
75091;DHT22;63674;48.048;8.306;2022-11-20T15:38:15;3.20;99.90
75091;DHT22;63674;48.048;8.306;2022-11-20T15:40:43;3.20;99.90
75091;DHT22;63674;48.048;8.306;2022-11-20T15:43:12;3.20;99.90
75091;DHT22;63674;48.048;8.306;2022-11-20T15:45:43;3.10;99.90
75091;DHT22;63674;48.048;8.306;2022-11-20T15:48:17;3.10;99.90
75091;DHT22;63674;48.048;8.306;2022-11-20T15:50:52;2.90;99.90
75091;DHT22;63674;48.048;8.306;2022-11-20T15:53:22;2.80;99.90
75091;DHT22;63674;48.048;8.306;2022-11-20T15:55:50;2.70;99.90
75091;DHT22;63674;48.048;8.306;2022-11-20T15:58:19;2.60;99.90
75091;DHT22;63674;48.048;8.306;2022-11-20T16:00:49;2.60;99.90
75091;DHT22;63674;48.048;8.306;2022-11-20T16:03:20;2.70;99.90
75091;DHT22;63674;48.048;8.306;2022-11-20T16:05:48;2.70;99.90
75091;DHT22;63674;48.048;8.306;2022-11-20T16:08:17;2.80;99.90
75091;DHT22;63674;48.048;8.306;2022-11-20T16:10:46;2.80;99.90
75091;DHT22;63674;48.048;8.306;2022-11-20T16:13:16;2.70;99.90
75091;DHT22;63674;48.048;8.306;2022-11-20T16:16:04;2.80;99.90
75091;DHT22;63674;48.048;8.306;2022-11-20T16:18:36;2.80;99.90
75091;DHT22;63674;48.048;8.306;2022-11-20T16:21:10;2.80;99.90
75091;DHT22;63674;48.048;8.306;2022-11-20T16:23:39;2.80;99.90
75091;DHT22;63674;48.048;8.306;2022-11-20T16:26:10;2.90;99.90
75091;DHT22;63674;48.048;8.306;2022-11-20T16:28:39;2.90;99.90
75091;DHT22;63674;48.048;8.306;2022-11-20T16:31:10;2.90;99.90
75091;DHT22;63674;48.048;8.306;2022-11-20T16:33:40;2.90;99.90
75091;DHT22;63674;48.048;8.306;2022-11-20T16:36:11;2.90;99.90
75091;DHT22;63674;48.048;8.306;2022-11-20T16:38:41;2.90;99.90